Townsend, MT

7:48 PM MDT on September 21, 2014 (GMT -0600)
Gallatin | Change Station
CLOSE
Current Station
Airport
Location: Bozeman,
Elevation: 4475 ft
Nearby Weather Stations

Elev 4475 ft 45.79 °N, 111.16 °W | Updated 52 minutes ago

Clear
Clear
70 °F
Feels Like 70 °F
N
4
Wind Variable Wind from WSW

Today
High -- | Low -- °F
--% Chance of Precip.
Yesterday
High -- | Low -- °F
Precip. -- in
7:11 AM 7:25 PM
Waning Crescent, 4% visible
Pressure 30.06 in
Visibility 10.0 miles
Clouds Clear
Dew Point 48 °F
Humidity 46%
Rainfall 0.00 in
Snow Depth 0 in , 0 in , 0 in
UV 0 out of 12
Pollen 5.70 out of 12
Air Quality Not available.
Flu Activity Not available.
METAR KBZN 220056Z 24003KT 10SM CLR 21/09 A3010 RMK AO2 SLP178 T02110089

More Conditions Fewer Conditions

Pressure 30.06 in
Visibility 10.0 miles
Clouds Clear
Dew Point 48 °F
Humidity 46%
Rainfall 0.00 in
Snow Depth 0 in , 0 in , 0 in
UV 0 out of 12
Pollen 5.70 out of 12
Air Quality Not available.
Flu Activity Not available.
METAR KBZN 220056Z 24003KT 10SM CLR 21/09 A3010 RMK AO2 SLP178 T02110089

More Conditions Fewer Conditions

10-Day Weather Forecast

Almanac

Astronomy

Sep. 21, 2014 Rise Set
Actual Time 7:11 AM MDT 7:25 PM MDT
Civil Twilight 6:41 AM MDT 7:55 PM MDT
Nautical Twilight 6:06 AM MDT 8:30 PM MDT
Astronomical Twilight 5:29 AM MDT 9:06 PM MDT
Moon 4:42 AM MDT (9/21) 6:08 PM MDT (9/21)
Length of Visible Light 13h 13m
Length of Day
12h 13m
Tomorrow will be 3m 15s shorter.
Waning Crescent, 4% of the Moon is Illuminated
Today
Waning Crescent
Sep 24
New
Oct 1
First Quarter
Oct 8
Full
Oct 15
Last Quarter

Today's Extremes

State Highs State Lows

Community

WunderPhotos

Upload Photos

1,755,347 photos uploaded!

WunderBlogs® & News

Nearby

Snow Depth

Station Depth Elevation
Lone Mountain 0 in 8880 ft
Emery Creek 0 in 4350 ft
Carrot Basin 0 in 9000 ft
Cole Creek 0 in 7850 ft
Wood Creek 0 in 5960 ft

Earthquake Activity

City Distance Mag. Time & Date
No recent earthquake activity has been reported nearby.
Minimum magnitude displayed is 2.5.

Coastal Water Temperatures

Place Temperature
No Stations Reporting

Nearby Weather Stations